Time;durP1;ratioP1;P1;durP2;ratioP2;P2;SDS_P1;SDS_P2;PMS_P1;PMS_P2;Temp;Humidity;BMP_temperature;BMP_pressure;BME280_temperature;BME280_humidity;BME280_pressure;Samples;Min_cycle;Max_cycle;Signal;HPM_P1;HPM_P2
2021/10/12 00:01:24;;;;;;;922.60;739.65;;;;;;;;;;5003531;28;20081;-81
2021/10/12 00:03:50;;;;;;;907.75;690.03;;;;;;;;;;5003306;28;20558;-80
2021/10/12 00:06:16;;;;;;;898.20;660.17;;;;;;;;;;5003971;28;20160;-80
2021/10/12 00:08:42;;;;;;;907.28;686.35;;;;;;;;;;4997458;28;20069;-81
2021/10/12 00:11:08;;;;;;;903.50;668.17;;;;;;;;;;5004545;28;20041;-81
2021/10/12 00:13:34;;;;;;;901.28;666.20;;;;;;;;;;5002762;28;20060;-81
2021/10/12 00:16:01;;;;;;;895.90;639.22;;;;;;;;;;5004719;28;20076;-81
2021/10/12 00:18:27;;;;;;;905.67;672.13;;;;;;;;;;5004688;28;20041;-81
2021/10/12 00:20:53;;;;;;;896.20;646.50;;;;;;;;;;5005548;28;20025;-81
2021/10/12 00:23:19;;;;;;;899.42;658.47;;;;;;;;;;5004219;28;20117;-80
2021/10/12 00:25:45;;;;;;;896.83;650.78;;;;;;;;;;5011218;28;20113;-81
2021/10/12 00:28:10;;;;;;;902.10;669.70;;;;;;;;;;5004573;28;20037;-81
2021/10/12 00:30:36;;;;;;;907.30;684.70;;;;;;;;;;5005448;28;20021;-81
2021/10/12 00:33:04;;;;;;;903.28;669.75;;;;;;;;;;5011497;28;20021;-81
2021/10/12 00:35:30;;;;;;;912.13;694.25;;;;;;;;;;5008740;28;20044;-81
2021/10/12 00:37:56;;;;;;;905.45;671.45;;;;;;;;;;5011357;28;20029;-81
2021/10/12 00:40:22;;;;;;;909.97;690.38;;;;;;;;;;5011559;28;20037;-80
2021/10/12 00:42:48;;;;;;;898.05;651.47;;;;;;;;;;5007550;28;20022;-81
2021/10/12 00:45:14;;;;;;;890.78;624.75;;;;;;;;;;5009616;28;20033;-81
2021/10/12 00:47:54;;;;;;;902.40;665.97;;;;;;;;;;5008230;28;20057;-81
2021/10/12 00:50:20;;;;;;;897.30;647.65;;;;;;;;;;5009225;28;20034;-81
2021/10/12 00:52:46;;;;;;;905.08;675.65;;;;;;;;;;5005480;28;20092;-80
2021/10/12 00:55:12;;;;;;;898.80;650.15;;;;;;;;;;5009057;28;20034;-80
2021/10/12 00:57:38;;;;;;;903.78;677.33;;;;;;;;;;5009451;28;20025;-81
2021/10/12 01:00:04;;;;;;;902.40;665.58;;;;;;;;;;5008717;28;20489;-81
2021/10/12 01:02:31;;;;;;;909.28;690.42;;;;;;;;;;5008578;28;20040;-81
2021/10/12 01:04:57;;;;;;;898.58;647.30;;;;;;;;;;5008452;28;20119;-81
2021/10/12 01:07:23;;;;;;;896.55;645.17;;;;;;;;;;5008000;28;20390;-81
2021/10/12 01:09:49;;;;;;;896.65;639.35;;;;;;;;;;5010388;28;20120;-81
2021/10/12 01:12:16;;;;;;;896.10;642.78;;;;;;;;;;5007321;28;20054;-81
2021/10/12 01:14:42;;;;;;;902.80;661.83;;;;;;;;;;5005727;28;20410;-81
2021/10/12 01:17:08;;;;;;;900.47;660.50;;;;;;;;;;5007992;28;20030;-81
2021/10/12 01:19:34;;;;;;;897.28;650.38;;;;;;;;;;5007727;28;20033;-81
2021/10/12 01:22:00;;;;;;;896.25;650.70;;;;;;;;;;5007956;28;20148;-81
2021/10/12 01:24:26;;;;;;;896.95;647.08;;;;;;;;;;5007596;28;20025;-81
2021/10/12 01:26:52;;;;;;;898.55;654.75;;;;;;;;;;5011277;28;20466;-81
2021/10/12 01:29:18;;;;;;;907.05;682.78;;;;;;;;;;5008731;28;20128;-81
2021/10/12 01:31:44;;;;;;;920.78;717.35;;;;;;;;;;5009290;28;20509;-81
2021/10/12 01:34:11;;;;;;;905.75;688.13;;;;;;;;;;5009201;28;20033;-81
2021/10/12 01:36:37;;;;;;;899.13;660.28;;;;;;;;;;5009840;28;20359;-81
2021/10/12 01:39:03;;;;;;;899.17;663.78;;;;;;;;;;5005247;28;20037;-81
2021/10/12 01:41:29;;;;;;;902.78;671.88;;;;;;;;;;5008022;28;20038;-81
2021/10/12 01:43:56;;;;;;;917.97;719.38;;;;;;;;;;5007964;28;20670;-81
2021/10/12 01:46:23;;;;;;;914.55;717.45;;;;;;;;;;5007998;28;20033;-81
2021/10/12 01:48:48;;;;;;;906.33;692.03;;;;;;;;;;5011502;28;20489;-81
2021/10/12 01:51:14;;;;;;;913.90;712.47;;;;;;;;;;5012193;28;20034;-81
2021/10/12 01:53:40;;;;;;;915.00;712.97;;;;;;;;;;5004893;28;20490;-81
2021/10/12 01:56:06;;;;;;;924.63;749.53;;;;;;;;;;5007507;28;20030;-81
2021/10/12 01:58:33;;;;;;;918.25;726.60;;;;;;;;;;5006811;28;21511;-82
2021/10/12 02:00:59;;;;;;;912.65;709.78;;;;;;;;;;5006942;28;20034;-81
2021/10/12 02:03:25;;;;;;;910.17;702.05;;;;;;;;;;5006742;28;20779;-81
2021/10/12 02:05:51;;;;;;;909.50;700.67;;;;;;;;;;5006626;28;20018;-81
2021/10/12 02:08:17;;;;;;;919.17;733.47;;;;;;;;;;5006761;28;20565;-81
2021/10/12 02:10:43;;;;;;;911.45;704.97;;;;;;;;;;5004062;28;20026;-81
2021/10/12 02:13:09;;;;;;;919.70;735.10;;;;;;;;;;5006766;28;20169;-81
2021/10/12 02:15:35;;;;;;;911.63;708.17;;;;;;;;;;5008682;28;20045;-82
2021/10/12 02:18:01;;;;;;;923.60;743.70;;;;;;;;;;5005772;28;20034;-82
2021/10/12 02:20:27;;;;;;;910.22;705.60;;;;;;;;;;5006036;28;20018;-82
2021/10/12 02:22:53;;;;;;;909.50;700.97;;;;;;;;;;5007093;28;20076;-82
2021/10/12 02:25:19;;;;;;;923.33;745.63;;;;;;;;;;5006715;28;20754;-81
2021/10/12 02:27:45;;;;;;;907.67;700.67;;;;;;;;;;5007807;28;20050;-81
2021/10/12 02:30:12;;;;;;;903.05;683.45;;;;;;;;;;5007861;28;20108;-81
2021/10/12 02:32:38;;;;;;;911.28;703.35;;;;;;;;;;5007315;28;20104;-82
2021/10/12 02:35:04;;;;;;;905.20;692.10;;;;;;;;;;5006536;28;20033;-82
2021/10/12 02:37:30;;;;;;;912.40;708.45;;;;;;;;;;5007354;28;20102;-82
2021/10/12 02:39:56;;;;;;;905.92;695.03;;;;;;;;;;5006822;28;20478;-81
2021/10/12 02:42:22;;;;;;;911.42;710.05;;;;;;;;;;5012842;28;20022;-81
2021/10/12 02:44:48;;;;;;;919.83;726.90;;;;;;;;;;5008784;28;20021;-81
2021/10/12 02:47:14;;;;;;;905.15;692.28;;;;;;;;;;5006940;28;20069;-81
2021/10/12 02:49:40;;;;;;;904.30;681.22;;;;;;;;;;5006847;28;20482;-81
2021/10/12 02:52:06;;;;;;;911.28;704.03;;;;;;;;;;5007007;28;20034;-82
2021/10/12 02:54:32;;;;;;;906.08;682.22;;;;;;;;;;5006270;28;20033;-81
2021/10/12 02:56:58;;;;;;;898.17;663.60;;;;;;;;;;5008871;28;20038;-81
2021/10/12 02:59:24;;;;;;;900.40;668.00;;;;;;;;;;5036015;28;20034;-81
2021/10/12 03:01:50;;;;;;;902.60;674.10;;;;;;;;;;5006235;28;20036;-81
2021/10/12 03:04:16;;;;;;;914.30;708.22;;;;;;;;;;5006923;28;20120;-81
2021/10/12 03:06:42;;;;;;;913.75;710.85;;;;;;;;;;5007553;28;20033;-81
2021/10/12 03:09:08;;;;;;;924.92;741.15;;;;;;;;;;5006990;28;20118;-81
2021/10/12 03:11:35;;;;;;;915.83;714.95;;;;;;;;;;5004504;28;20049;-81
2021/10/12 03:14:01;;;;;;;909.20;691.28;;;;;;;;;;5009312;28;20033;-82
2021/10/12 03:16:27;;;;;;;906.78;684.97;;;;;;;;;;5007790;28;20100;-81
2021/10/12 03:18:53;;;;;;;907.90;692.03;;;;;;;;;;5006819;28;20466;-81
2021/10/12 03:21:21;;;;;;;927.60;749.50;;;;;;;;;;5007622;28;20425;-81
2021/10/12 03:23:47;;;;;;;916.00;720.22;;;;;;;;;;5004337;28;20022;-81
2021/10/12 03:26:13;;;;;;;909.03;688.00;;;;;;;;;;5006316;28;20037;-82
2021/10/12 03:28:39;;;;;;;911.25;701.83;;;;;;;;;;5006535;28;20117;-81
2021/10/12 03:31:05;;;;;;;916.53;711.47;;;;;;;;;;5010820;28;20077;-82
2021/10/12 03:33:31;;;;;;;909.78;696.63;;;;;;;;;;5006453;28;20241;-82
2021/10/12 03:35:59;;;;;;;921.75;736.05;;;;;;;;;;5007842;28;20125;-82
2021/10/12 03:38:26;;;;;;;927.90;754.60;;;;;;;;;;5006231;28;20265;-81
2021/10/12 03:40:52;;;;;;;924.10;741.70;;;;;;;;;;5005073;28;20030;-82
2021/10/12 03:43:19;;;;;;;912.20;708.17;;;;;;;;;;5006008;28;20034;-82
2021/10/12 03:45:45;;;;;;;917.75;720.33;;;;;;;;;;5006189;28;20117;-81
2021/10/12 03:48:11;;;;;;;925.80;742.17;;;;;;;;;;5005861;28;20350;-81
2021/10/12 03:50:37;;;;;;;929.35;754.83;;;;;;;;;;5004026;28;20068;-82
2021/10/12 03:53:03;;;;;;;917.28;721.72;;;;;;;;;;5004648;28;20061;-81
2021/10/12 03:55:29;;;;;;;927.17;751.47;;;;;;;;;;5008110;28;20033;-82
2021/10/12 03:57:55;;;;;;;911.00;700.08;;;;;;;;;;5007943;28;20060;-81
2021/10/12 04:00:21;;;;;;;919.03;725.28;;;;;;;;;;5007879;28;20065;-81
2021/10/12 04:02:47;;;;;;;921.90;732.63;;;;;;;;;;5009635;28;20026;-81
2021/10/12 04:05:13;;;;;;;933.30;762.95;;;;;;;;;;5009768;28;20457;-81
2021/10/12 04:07:39;;;;;;;929.72;755.40;;;;;;;;;;5008238;28;20129;-81
2021/10/12 04:10:06;;;;;;;927.80;750.45;;;;;;;;;;5042462;28;20096;-81
2021/10/12 04:12:32;;;;;;;927.45;746.33;;;;;;;;;;5007625;28;20046;-81
2021/10/12 04:14:58;;;;;;;930.97;754.58;;;;;;;;;;5009445;28;20455;-82
2021/10/12 04:17:24;;;;;;;924.90;740.03;;;;;;;;;;5007259;28;20637;-81
2021/10/12 04:19:50;;;;;;;932.13;761.53;;;;;;;;;;5009371;28;20026;-81
2021/10/12 04:22:16;;;;;;;938.83;785.65;;;;;;;;;;5010554;28;20030;-81
2021/10/12 04:24:42;;;;;;;938.80;776.85;;;;;;;;;;5008801;28;20418;-81
2021/10/12 04:27:08;;;;;;;936.40;773.70;;;;;;;;;;5009388;28;20029;-81
2021/10/12 04:29:34;;;;;;;931.92;765.10;;;;;;;;;;5009586;28;20164;-82
2021/10/12 04:32:01;;;;;;;911.45;708.15;;;;;;;;;;5008552;28;20038;-81
2021/10/12 04:34:27;;;;;;;942.90;791.55;;;;;;;;;;5012470;28;20022;-81
2021/10/12 04:36:54;;;;;;;938.10;785.60;;;;;;;;;;5009116;28;20083;-81
2021/10/12 04:39:20;;;;;;;930.60;764.97;;;;;;;;;;5014761;28;20394;-81
2021/10/12 04:41:46;;;;;;;933.58;770.92;;;;;;;;;;5006729;28;20037;-81
2021/10/12 04:44:12;;;;;;;921.70;739.53;;;;;;;;;;5009516;28;20089;-82
2021/10/12 04:46:41;;;;;;;939.83;782.65;;;;;;;;;;5009088;28;20034;-80
2021/10/12 04:49:08;;;;;;;941.25;793.42;;;;;;;;;;5009306;28;20462;-81
2021/10/12 04:51:34;;;;;;;925.08;746.13;;;;;;;;;;5008765;28;20044;-81
2021/10/12 04:54:02;;;;;;;937.75;775.80;;;;;;;;;;5007913;28;20466;-81
2021/10/12 04:56:28;;;;;;;936.22;773.75;;;;;;;;;;5013728;28;20033;-81
2021/10/12 04:58:54;;;;;;;937.70;783.95;;;;;;;;;;5008763;28;20395;-81
2021/10/12 05:01:20;;;;;;;929.20;763.17;;;;;;;;;;5006590;28;20032;-81
2021/10/12 05:03:46;;;;;;;920.33;736.20;;;;;;;;;;5009338;28;20030;-82
2021/10/12 05:06:12;;;;;;;933.97;773.55;;;;;;;;;;5008599;28;20380;-81
2021/10/12 05:08:38;;;;;;;944.05;796.92;;;;;;;;;;5042038;28;20037;-81
2021/10/12 05:11:04;;;;;;;939.35;786.72;;;;;;;;;;5007713;28;20096;-81
2021/10/12 05:13:30;;;;;;;912.35;709.40;;;;;;;;;;5007964;28;20060;-81
2021/10/12 05:15:59;;;;;;;933.47;768.95;;;;;;;;;;5008980;28;20107;-82
2021/10/12 05:18:30;;;;;;;938.88;791.95;;;;;;;;;;5009284;28;20076;-82
2021/10/12 05:20:58;;;;;;;925.97;749.67;;;;;;;;;;5006746;28;20026;-82
2021/10/12 05:23:24;;;;;;;920.90;741.78;;;;;;;;;;5007738;28;20034;-81
2021/10/12 05:25:50;;;;;;;919.28;730.78;;;;;;;;;;5008139;28;20481;-82
2021/10/12 05:28:17;;;;;;;931.58;766.22;;;;;;;;;;5010031;28;20038;-81
2021/10/12 05:30:44;;;;;;;923.60;742.75;;;;;;;;;;5008265;28;20064;-81
2021/10/12 05:33:14;;;;;;;913.83;715.25;;;;;;;;;;5022180;28;20096;-82
2021/10/12 05:35:40;;;;;;;929.88;760.08;;;;;;;;;;5011452;28;20497;-81
2021/10/12 05:38:06;;;;;;;919.60;727.47;;;;;;;;;;5041092;28;20038;-81
2021/10/12 05:40:33;;;;;;;906.50;703.17;;;;;;;;;;5009225;28;20034;-82
2021/10/12 05:42:59;;;;;;;924.80;751.70;;;;;;;;;;5029450;28;20105;-81
2021/10/12 05:45:25;;;;;;;902.55;685.33;;;;;;;;;;5005498;28;20026;-81
2021/10/12 05:47:51;;;;;;;906.35;695.28;;;;;;;;;;5012930;28;20077;-81
2021/10/12 05:50:18;;;;;;;917.05;727.38;;;;;;;;;;5008787;28;20041;-80
2021/10/12 05:52:53;;;;;;;932.45;772.10;;;;;;;;;;5005145;28;20096;-81
2021/10/12 05:55:34;;;;;;;926.55;751.70;;;;;;;;;;5004244;28;20502;-80
2021/10/12 05:58:07;;;;;;;920.08;734.38;;;;;;;;;;5009940;28;20022;-80
2021/10/12 06:00:36;;;;;;;909.58;694.35;;;;;;;;;;5016007;28;20033;-81
2021/10/12 06:03:02;;;;;;;916.70;727.60;;;;;;;;;;5008026;28;20030;-86
2021/10/12 06:05:28;;;;;;;929.05;762.80;;;;;;;;;;5002847;28;20401;-85
2021/10/12 06:07:55;;;;;;;918.05;726.63;;;;;;;;;;5011749;28;20029;-84
2021/10/12 06:10:21;;;;;;;937.13;782.20;;;;;;;;;;5009634;28;20036;-86
2021/10/12 06:12:47;;;;;;;922.60;741.50;;;;;;;;;;5012918;28;20118;-87
2021/10/12 06:15:13;;;;;;;930.20;765.90;;;;;;;;;;5000649;28;20042;-89
2021/10/12 06:17:40;;;;;;;931.65;773.97;;;;;;;;;;5005993;28;20041;-86
2021/10/12 06:20:06;;;;;;;928.55;761.78;;;;;;;;;;5007434;28;20276;-87
2021/10/12 06:22:32;;;;;;;920.45;743.60;;;;;;;;;;5005955;28;20105;-87
2021/10/12 06:24:58;;;;;;;935.25;781.08;;;;;;;;;;5007615;28;21547;-88
2021/10/12 06:27:24;;;;;;;926.70;761.30;;;;;;;;;;5007966;28;20044;-86
2021/10/12 06:29:50;;;;;;;924.53;755.53;;;;;;;;;;5007054;28;20037;-86
2021/10/12 06:32:16;;;;;;;943.85;810.55;;;;;;;;;;5008679;28;20402;-87
2021/10/12 06:34:42;;;;;;;938.13;794.25;;;;;;;;;;5002710;28;20037;-86
2021/10/12 06:37:08;;;;;;;933.50;783.95;;;;;;;;;;5003693;28;20033;-86
2021/10/12 06:39:35;;;;;;;922.90;758.17;;;;;;;;;;5008844;28;20096;-85
2021/10/12 06:42:01;;;;;;;936.55;788.40;;;;;;;;;;5008104;28;20021;-84
2021/10/12 06:44:27;;;;;;;943.30;809.47;;;;;;;;;;5000255;28;20085;-84
2021/10/12 06:46:53;;;;;;;923.53;763.17;;;;;;;;;;5008695;28;20029;-83
2021/10/12 06:49:19;;;;;;;944.20;815.47;;;;;;;;;;5017368;28;20040;-84
2021/10/12 06:51:45;;;;;;;947.55;816.70;;;;;;;;;;5010734;28;20064;-83
2021/10/12 06:54:11;;;;;;;929.10;777.67;;;;;;;;;;5011264;28;20030;-83
2021/10/12 06:56:37;;;;;;;938.40;799.53;;;;;;;;;;5005962;28;20048;-84
2021/10/12 06:59:03;;;;;;;923.35;764.03;;;;;;;;;;5005025;28;20026;-84
2021/10/12 07:01:29;;;;;;;918.88;744.08;;;;;;;;;;5008213;28;20052;-85
2021/10/12 07:03:55;;;;;;;939.33;805.25;;;;;;;;;;5008412;28;20018;-85
2021/10/12 07:06:21;;;;;;;939.97;802.08;;;;;;;;;;5007065;28;20022;-85
2021/10/12 07:08:47;;;;;;;940.92;808.30;;;;;;;;;;5006980;28;20037;-86
2021/10/12 07:11:13;;;;;;;932.00;783.22;;;;;;;;;;5007077;28;20049;-85
2021/10/12 07:13:39;;;;;;;946.47;823.10;;;;;;;;;;5008144;28;20034;-85
2021/10/12 07:16:05;;;;;;;930.13;780.33;;;;;;;;;;5009847;28;20040;-87
2021/10/12 07:18:31;;;;;;;934.15;791.85;;;;;;;;;;5009150;28;20042;-87
2021/10/12 07:20:57;;;;;;;926.22;775.08;;;;;;;;;;5005573;28;20413;-89
2021/10/12 07:23:23;;;;;;;938.22;798.03;;;;;;;;;;5003331;28;20116;-88
2021/10/12 07:25:49;;;;;;;918.40;748.45;;;;;;;;;;5007838;28;20604;-88
2021/10/12 07:28:15;;;;;;;924.03;759.13;;;;;;;;;;5006310;28;20525;-90
2021/10/12 07:30:41;;;;;;;916.95;747.00;;;;;;;;;;5005732;28;20482;-90
2021/10/12 07:33:08;;;;;;;928.03;775.03;;;;;;;;;;5015055;28;20025;-88
2021/10/12 07:35:34;;;;;;;923.67;762.70;;;;;;;;;;5011824;28;20116;-87
2021/10/12 07:38:01;;;;;;;915.30;738.97;;;;;;;;;;5037248;28;20100;-89
2021/10/12 07:40:27;;;;;;;918.78;755.03;;;;;;;;;;5013578;28;20034;-85
2021/10/12 07:42:53;;;;;;;916.10;750.28;;;;;;;;;;5028701;28;20109;-85
2021/10/12 07:45:19;;;;;;;925.38;775.72;;;;;;;;;;5009073;28;20440;-85
2021/10/12 07:47:45;;;;;;;922.60;768.95;;;;;;;;;;5015898;28;20113;-84
2021/10/12 07:50:11;;;;;;;920.25;763.67;;;;;;;;;;5013511;28;20654;-85
2021/10/12 07:52:37;;;;;;;921.10;763.33;;;;;;;;;;5010358;28;20044;-83
2021/10/12 07:57:33;;;;;;;920.00;770.67;;;;;;;;;;5011549;28;20033;-85
2021/10/12 07:59:59;;;;;;;941.08;832.05;;;;;;;;;;5005195;28;20385;-83
2021/10/12 08:02:25;;;;;;;916.28;764.05;;;;;;;;;;5007382;28;20026;-82
2021/10/12 08:04:51;;;;;;;935.95;814.38;;;;;;;;;;5007748;28;20049;-84
2021/10/12 08:07:17;;;;;;;923.58;783.55;;;;;;;;;;5035366;28;20049;-82
2021/10/12 08:09:43;;;;;;;931.85;807.75;;;;;;;;;;5009531;28;20029;-82
2021/10/12 08:12:09;;;;;;;948.55;842.20;;;;;;;;;;5013798;28;20371;-83
2021/10/12 08:14:39;;;;;;;926.47;795.35;;;;;;;;;;5014293;28;20029;-87
2021/10/12 08:17:05;;;;;;;;;;;;;;;;;;5010839;28;20506;-82
2021/10/12 08:19:31;;;;;;;908.80;721.53;;;;;;;;;;5019035;28;19910;-83
2021/10/12 08:21:57;;;;;;;916.03;754.35;;;;;;;;;;5007673;28;20625;-83
2021/10/12 08:24:23;;;;;;;926.35;782.55;;;;;;;;;;5011854;28;20114;-81
2021/10/12 08:26:50;;;;;;;918.78;759.33;;;;;;;;;;5013645;28;20053;-82
2021/10/12 08:29:16;;;;;;;915.65;756.25;;;;;;;;;;5009421;28;20467;-83
2021/10/12 08:31:43;;;;;;;935.17;815.28;;;;;;;;;;5013228;28;20064;-83
2021/10/12 08:34:09;;;;;;;941.78;833.05;;;;;;;;;;5013884;28;20026;-83
2021/10/12 08:36:37;;;;;;;929.65;806.05;;;;;;;;;;5014003;28;20489;-81
2021/10/12 08:39:04;;;;;;;915.17;763.83;;;;;;;;;;5013989;28;20754;-83
2021/10/12 08:41:31;;;;;;;931.78;810.83;;;;;;;;;;5013131;28;20688;-86
2021/10/12 08:43:57;;;;;;;939.22;830.50;;;;;;;;;;5013938;28;20061;-84
2021/10/12 08:46:27;;;;;;;921.90;782.83;;;;;;;;;;5014381;28;20040;-82
2021/10/12 08:48:57;;;;;;;916.97;776.42;;;;;;;;;;5014077;28;20048;-84
2021/10/12 08:51:23;;;;;;;918.22;769.30;;;;;;;;;;5010144;28;20034;-83
2021/10/12 08:53:49;;;;;;;926.75;798.58;;;;;;;;;;5008603;28;20049;-83
2021/10/12 08:56:15;;;;;;;932.33;814.72;;;;;;;;;;5013442;28;20057;-81
2021/10/12 08:58:41;;;;;;;946.53;840.90;;;;;;;;;;5013149;28;20026;-83
2021/10/12 09:01:09;;;;;;;926.38;804.13;;;;;;;;;;5012758;28;20088;-82
2021/10/12 09:06:29;;;;;;;934.58;813.58;;;;;;;;;;5014451;28;20030;-83
2021/10/12 09:08:57;;;;;;;933.15;817.40;;;;;;;;;;5012232;28;20018;-84
2021/10/12 09:11:24;;;;;;;928.83;800.85;;;;;;;;;;5017111;28;20045;-84
2021/10/12 09:13:51;;;;;;;923.58;793.35;;;;;;;;;;5014623;28;20034;-87
2021/10/12 09:16:18;;;;;;;917.30;770.72;;;;;;;;;;5009941;28;20042;-89
2021/10/12 09:18:55;;;;;;;910.53;747.83;;;;;;;;;;5012371;28;20068;-84
2021/10/12 09:21:40;;;;;;;916.78;770.88;;;;;;;;;;5029874;28;20037;-87
2021/10/12 09:24:08;;;;;;;916.42;772.58;;;;;;;;;;5012411;28;20030;-84
2021/10/12 09:26:35;;;;;;;918.00;776.25;;;;;;;;;;5009301;28;20048;-84
2021/10/12 09:29:06;;;;;;;928.15;809.55;;;;;;;;;;5012471;28;20034;-86
2021/10/12 09:31:34;;;;;;;926.65;808.35;;;;;;;;;;5012957;28;20030;-84
2021/10/12 09:34:02;;;;;;;971.45;866.05;;;;;;;;;;5012572;28;20029;-85
2021/10/12 09:36:35;;;;;;;933.97;828.45;;;;;;;;;;5014367;28;20029;-88
2021/10/12 09:39:02;;;;;;;924.28;803.25;;;;;;;;;;5012448;28;20625;-84
2021/10/12 09:41:28;;;;;;;914.58;780.58;;;;;;;;;;5009679;28;20042;-85
2021/10/12 09:44:05;;;;;;;932.13;816.35;;;;;;;;;;5012249;28;20104;-81
2021/10/12 09:46:35;;;;;;;912.75;763.85;;;;;;;;;;5010951;28;20032;-86
2021/10/12 09:49:11;;;;;;;911.97;761.00;;;;;;;;;;5012639;28;20042;-87
2021/10/12 09:51:42;;;;;;;921.25;791.05;;;;;;;;;;5012540;28;20037;-89
2021/10/12 09:54:17;;;;;;;;;;;;;;;;;;5012105;28;20022;-83
2021/10/12 09:56:43;;;;;;;924.40;777.97;;;;;;;;;;5029281;28;19915;-86
2021/10/12 09:59:09;;;;;;;917.85;777.97;;;;;;;;;;5011868;28;20635;-85
2021/10/12 10:01:38;;;;;;;940.40;835.28;;;;;;;;;;5007610;28;20432;-88
2021/10/12 10:04:05;;;;;;;951.38;846.63;;;;;;;;;;5012011;28;20087;-84
2021/10/12 10:06:31;;;;;;;941.70;836.60;;;;;;;;;;5013056;28;20084;-85
2021/10/12 10:08:58;;;;;;;941.58;833.45;;;;;;;;;;5013245;28;20038;-84
2021/10/12 10:11:26;;;;;;;927.88;818.65;;;;;;;;;;5011847;28;20084;-80
2021/10/12 10:13:58;;;;;;;932.33;829.10;;;;;;;;;;5072108;27;1214437;-71
2021/10/12 10:16:24;;;;;;;992.85;886.92;;;;;;;;;;5094071;28;20044;-71
2021/10/12 10:18:50;;;;;;;979.53;874.42;;;;;;;;;;5094796;28;20032;-72
2021/10/12 10:21:17;;;;;;;975.83;871.58;;;;;;;;;;5070423;28;22089;-72
2021/10/12 10:23:53;;;;;;;956.05;852.40;;;;;;;;;;5092605;28;20020;-72
2021/10/12 10:26:22;;;;;;;908.90;776.58;;;;;;;;;;5093070;28;20035;-71
2021/10/12 10:28:48;;;;;;;946.47;843.03;;;;;;;;;;5075903;28;20479;-72
2021/10/12 10:31:14;;;;;;;929.47;824.42;;;;;;;;;;5076153;28;20024;-72
2021/10/12 10:33:40;;;;;;;944.65;840.75;;;;;;;;;;5093788;28;20129;-72
2021/10/12 10:36:07;;;;;;;923.72;797.75;;;;;;;;;;5093221;28;20035;-71
2021/10/12 10:38:43;;;;;;;952.03;847.30;;;;;;;;;;5072962;28;20024;-72
2021/10/12 10:41:10;;;;;;;927.65;817.03;;;;;;;;;;5076407;28;20229;-72
2021/10/12 10:43:52;;;;;;;921.97;804.00;;;;;;;;;;5097406;28;20035;-71
2021/10/12 10:46:34;;;;;;;918.85;786.60;;;;;;;;;;5079252;28;20031;-71
2021/10/12 10:49:20;;;;;;;917.67;790.08;;;;;;;;;;5074539;28;20356;-72
2021/10/12 10:52:05;;;;;;;915.75;782.33;;;;;;;;;;5090593;28;20430;-72
2021/10/12 10:54:37;;;;;;;910.75;769.35;;;;;;;;;;5103647;28;20499;-70
2021/10/12 10:57:19;;;;;;;912.13;775.70;;;;;;;;;;5080900;28;20026;-72
2021/10/12 10:59:45;;;;;;;950.40;846.50;;;;;;;;;;5094008;28;20099;-72
2021/10/12 11:02:33;;;;;;;962.72;858.47;;;;;;;;;;5093428;28;20032;-72
2021/10/12 11:04:59;;;;;;;1002.80;896.75;;;;;;;;;;5072275;28;20036;-72
2021/10/12 11:07:26;;;;;;;987.00;882.25;;;;;;;;;;5075631;28;20061;-72
2021/10/12 11:09:53;;;;;;;973.42;869.20;;;;;;;;;;5074109;28;20451;-72
2021/10/12 11:12:21;;;;;;;988.30;883.53;;;;;;;;;;5092840;28;20036;-71
2021/10/12 11:14:47;;;;;;;1027.68;921.15;;;;;;;;;;5071173;28;20016;-72
2021/10/12 11:17:13;;;;;;;998.35;893.22;;;;;;;;;;5075055;28;20111;-72
2021/10/12 11:19:55;;;;;;;964.45;860.78;;;;;;;;;;5070941;28;20124;-72
2021/10/12 11:22:21;;;;;;;972.38;868.22;;;;;;;;;;5085593;28;20036;-72
2021/10/12 11:24:50;;;;;;;965.58;861.97;;;;;;;;;;5055887;28;20036;-72
2021/10/12 11:27:16;;;;;;;995.60;890.55;;;;;;;;;;5068179;28;20111;-72
2021/10/12 11:29:42;;;;;;;988.78;884.00;;;;;;;;;;5053821;28;20553;-72
2021/10/12 11:32:08;;;;;;;1009.60;903.95;;;;;;;;;;5054538;28;22582;-71
2021/10/12 11:34:35;;;;;;;1007.83;902.35;;;;;;;;;;5049789;28;20027;-72
2021/10/12 11:37:13;;;;;;;1050.47;941.78;;;;;;;;;;5063264;28;20031;-72
2021/10/12 11:39:39;;;;;;;1015.53;909.67;;;;;;;;;;5071154;28;20074;-72
2021/10/12 11:42:06;;;;;;;1023.13;916.95;;;;;;;;;;5068663;28;20024;-72
2021/10/12 11:44:33;;;;;;;999.75;894.53;;;;;;;;;;5055183;28;20884;-76
2021/10/12 11:47:02;;;;;;;1001.60;896.25;;;;;;;;;;5072789;28;20369;-71
2021/10/12 11:49:28;;;;;;;1001.25;896.13;;;;;;;;;;5074501;28;20025;-72
2021/10/12 11:51:54;;;;;;;1016.65;910.55;;;;;;;;;;5070647;28;20028;-72
2021/10/12 11:54:22;;;;;;;1014.75;908.60;;;;;;;;;;5074682;28;20016;-72
2021/10/12 11:56:47;;;;;;;1031.70;924.65;;;;;;;;;;5062001;28;20205;-73
2021/10/12 11:59:13;;;;;;;1003.13;897.55;;;;;;;;;;5062679;28;20052;-72
2021/10/12 12:01:42;;;;;;;1005.63;900.13;;;;;;;;;;5059398;28;20024;-72
2021/10/12 12:04:08;;;;;;;1033.38;926.13;;;;;;;;;;5048199;28;20460;-72
2021/10/12 12:06:43;;;;;;;975.70;871.58;;;;;;;;;;5051034;28;20029;-72
2021/10/12 12:09:16;;;;;;;1016.05;909.72;;;;;;;;;;5056032;28;20052;-72
2021/10/12 12:11:42;;;;;;;983.10;878.47;;;;;;;;;;5058788;28;20029;-72
2021/10/12 12:14:08;;;;;;;970.85;866.65;;;;;;;;;;5049297;28;20119;-72
2021/10/12 12:16:34;;;;;;;979.60;874.88;;;;;;;;;;5038173;28;20017;-72
2021/10/12 12:19:02;;;;;;;980.28;875.42;;;;;;;;;;5056966;28;20031;-71
2021/10/12 12:21:33;;;;;;;991.53;885.53;;;;;;;;;;5038092;28;20024;-72
2021/10/12 12:24:00;;;;;;;947.92;844.13;;;;;;;;;;5045593;28;20037;-72
2021/10/12 12:26:28;;;;;;;933.67;830.13;;;;;;;;;;5047355;28;20029;-71
2021/10/12 12:28:54;;;;;;;962.78;858.33;;;;;;;;;;5059452;28;20111;-72
2021/10/12 12:31:25;;;;;;;992.90;886.78;;;;;;;;;;5037410;28;20037;-71
2021/10/12 12:33:55;;;;;;;971.00;866.15;;;;;;;;;;5060491;28;20032;-71
2021/10/12 12:36:31;;;;;;;929.10;823.65;;;;;;;;;;5057488;28;20305;-72
2021/10/12 12:39:05;;;;;;;952.08;847.95;;;;;;;;;;5058430;28;20100;-71
2021/10/12 12:41:36;;;;;;;994.13;887.78;;;;;;;;;;5055010;28;20026;-72
2021/10/12 12:44:04;;;;;;;1017.97;910.25;;;;;;;;;;5058646;28;20480;-71
2021/10/12 12:46:31;;;;;;;982.28;876.58;;;;;;;;;;5061769;28;20027;-71
2021/10/12 12:49:07;;;;;;;985.30;879.88;;;;;;;;;;5069316;28;20032;-71
2021/10/12 12:51:34;;;;;;;982.80;877.10;;;;;;;;;;5036336;28;20021;-71
2021/10/12 12:54:00;;;;;;;1007.70;900.85;;;;;;;;;;5050545;28;20029;-71
2021/10/12 12:56:34;;;;;;;999.17;892.70;;;;;;;;;;5053125;28;20479;-71
2021/10/12 12:59:04;;;;;;;996.38;890.08;;;;;;;;;;5053532;28;20664;-71
2021/10/12 13:01:30;;;;;;;989.47;883.90;;;;;;;;;;5059735;28;20035;-72
2021/10/12 13:03:56;;;;;;;1007.15;900.33;;;;;;;;;;5058641;28;20025;-74
2021/10/12 13:06:22;;;;;;;1010.88;903.97;;;;;;;;;;5049380;28;20115;-72
2021/10/12 13:08:53;;;;;;;974.85;869.80;;;;;;;;;;5039568;28;20036;-71
2021/10/12 13:11:22;;;;;;;983.20;877.35;;;;;;;;;;5035867;28;20059;-71
2021/10/12 13:13:48;;;;;;;992.65;886.40;;;;;;;;;;5059778;28;20142;-71
2021/10/12 13:16:14;;;;;;;997.13;890.70;;;;;;;;;;5040240;28;20032;-72
2021/10/12 13:18:41;;;;;;;1015.78;908.53;;;;;;;;;;5041656;28;20394;-72
2021/10/12 13:21:07;;;;;;;1008.42;901.15;;;;;;;;;;5056521;28;20707;-74
2021/10/12 13:23:34;;;;;;;1015.17;907.65;;;;;;;;;;5049157;28;20056;-71
2021/10/12 13:26:00;;;;;;;974.55;869.25;;;;;;;;;;5031920;28;20609;-73
2021/10/12 13:28:26;;;;;;;984.17;878.10;;;;;;;;;;5058240;28;20070;-72
2021/10/12 13:30:52;;;;;;;1033.15;924.35;;;;;;;;;;5036016;28;20396;-72
2021/10/12 13:33:18;;;;;;;1013.42;905.55;;;;;;;;;;5049542;28;20040;-72
2021/10/12 13:35:44;;;;;;;1012.35;905.22;;;;;;;;;;5052224;28;20016;-72
2021/10/12 13:38:11;;;;;;;999.47;893.35;;;;;;;;;;5051355;28;20367;-71
2021/10/12 13:40:37;;;;;;;1054.03;944.63;;;;;;;;;;5061225;28;20476;-72
2021/10/12 13:43:03;;;;;;;1044.43;935.67;;;;;;;;;;5062736;28;20369;-71
2021/10/12 13:45:29;;;;;;;1026.78;919.35;;;;;;;;;;5040886;28;20107;-72
2021/10/12 13:47:56;;;;;;;1021.85;914.97;;;;;;;;;;5039025;28;20124;-72
2021/10/12 13:50:24;;;;;;;1049.97;940.95;;;;;;;;;;5047610;28;20035;-72
2021/10/12 13:52:50;;;;;;;987.75;881.90;;;;;;;;;;5055444;28;20372;-72
2021/10/12 13:55:16;;;;;;;1037.53;928.70;;;;;;;;;;5053991;28;20032;-72
2021/10/12 13:57:42;;;;;;;1014.17;906.55;;;;;;;;;;5052316;28;20021;-72